^^
Station Historical Data
Daily Summary for April 22, 2017 Units:  English    Metric   Both
« Previous Day
Next Day »
Daily Weekly Monthly Yearly Custom
  High: Low: Average:
Temperature: 75.6 °F 55.0 °F 64.6 °F
Dew Point: 64.0 °F 52.9 °F 57.7 °F
Humidity: 99% 50% 81%
Wind Speed: 5.0mph 0.0mph 0.2mph
Wind Gust: 14.0mph - -
Wind- - SSE
Pressure: 30.04 in 29.86 in -
Precipitation: 0.76 in    
Historical Graphs
 
 
Tabular Data for April 22, 2017
Time Temperature Dew Point Pressure Wind Wind Speed Wind Gust Humidity Rainfall Rate (Hourly)
00:00 61.2 °F 60.6 °F 30.02 in Calm     98% 0.00 in
00:10 61.2 °F 60.6 °F 30.02 in Calm     98% 0.01 in
00:15 61.3 °F 60.8 °F 30.02 in Calm     98% 0.01 in
00:20 61.3 °F 60.8 °F 30.02 in Calm     98% 0.01 in
00:25 61.3 °F 60.8 °F 30.02 in Calm     98% 0.01 in
00:30 61.3 °F 60.8 °F 30.02 in Calm     98% 0.01 in
00:35 61.3 °F 60.8 °F 30.02 in Calm     98% 0.01 in
00:40 61.3 °F 60.8 °F 30.02 in Calm     98% 0.01 in
00:45 61.3 °F 60.8 °F 30.01 in Calm     98% 0.01 in
00:50 61.3 °F 60.8 °F 30.01 in Calm     98% 0.01 in
00:55 61.2 °F 60.6 °F 30.01 in Calm     98% 0.01 in
01:07 61.0 °F 60.4 °F 30.01 in Calm     98% 0.01 in
01:12 61.0 °F 60.4 °F 30.01 in Calm     98% 0.00 in
01:13 61.0 °F 60.4 °F 30.01 in Calm     98% 0.00 in
01:23 61.2 °F 60.6 °F 30.01 in Calm     98% 0.00 in
01:28 61.2 °F 60.6 °F 30.01 in Calm     98% 0.00 in
01:33 61.2 °F 60.6 °F 30.00 in Calm     98% 0.00 in
01:38 61.2 °F 60.6 °F 30.01 in Calm     98% 0.00 in
01:43 61.0 °F 60.4 °F 30.00 in Calm     98% 0.00 in
01:48 61.0 °F 60.4 °F 30.01 in Calm     98% 0.00 in
01:53 61.0 °F 60.4 °F 30.00 in Calm     98% 0.00 in
01:58 61.0 °F 60.4 °F 30.00 in Calm     98% 0.00 in
02:04 61.0 °F 60.4 °F 29.99 in Calm     98% 0.00 in
02:09 60.8 °F 60.3 °F 29.99 in Calm     98% 0.00 in
02:14 60.8 °F 60.3 °F 29.99 in Calm     98% 0.00 in
02:24 60.6 °F 60.1 °F 29.99 in Calm     98% 0.00 in
02:29 60.6 °F 60.1 °F 29.99 in Calm     98% 0.00 in
02:34 60.4 °F 59.9 °F 29.98 in Calm     98% 0.00 in
02:39 60.4 °F 59.9 °F 29.98 in Calm     98% 0.00 in
02:44 60.4 °F 59.9 °F 29.98 in Calm     98% 0.00 in
02:49 60.4 °F 59.9 °F 29.98 in Calm     98% 0.00 in
02:54 60.4 °F 59.9 °F 29.98 in Calm     98% 0.00 in
02:59 60.4 °F 59.9 °F 29.98 in Calm     98% 0.00 in
03:04 60.4 °F 59.9 °F 29.98 in Calm     98% 0.00 in
03:09 60.4 °F 59.9 °F 29.98 in Calm     98% 0.00 in
03:14 60.3 °F 59.7 °F 29.97 in Calm     98% 0.00 in
03:19 60.3 °F 59.9 °F 29.97 in Calm     99% 0.00 in
03:24 60.3 °F 59.9 °F 29.97 in Calm     99% 0.00 in
03:29 60.3 °F 59.7 °F 29.97 in Calm     98% 0.00 in
03:34 60.1 °F 59.5 °F 29.97 in Calm     98% 0.00 in
03:39 60.1 °F 59.5 °F 29.97 in Calm     98% 0.00 in
03:44 60.1 °F 59.5 °F 29.97 in Calm     98% 0.00 in
03:49 60.1 °F 59.5 °F 29.96 in Calm     98% 0.00 in
04:00 59.9 °F 59.4 °F 29.96 in Calm   1.0 mph 98% 0.00 in
04:05 59.7 °F 59.2 °F 29.96 in Calm     98% 0.00 in
04:10 59.7 °F 59.2 °F 29.96 in Calm     98% 0.00 in
04:15 59.5 °F 59.0 °F 29.96 in Calm     98% 0.00 in
04:20 59.5 °F 59.0 °F 29.95 in Calm     98% 0.00 in
04:25 59.5 °F 59.0 °F 29.95 in Calm     98% 0.00 in
04:30 59.5 °F 59.2 °F 29.95 in Calm     99% 0.00 in
04:35 59.5 °F 59.2 °F 29.96 in Calm     99% 0.00 in
04:40 59.5 °F 59.2 °F 29.95 in Calm     99% 0.00 in
04:45 59.4 °F 58.8 °F 29.95 in Calm   1.0 mph 98% 0.00 in
04:50 59.2 °F 58.6 °F 29.95 in Calm   1.0 mph 98% 0.00 in
04:55 59.0 °F 58.5 °F 29.95 in Calm     98% 0.00 in
05:05 58.8 °F 58.3 °F 29.95 in Calm   1.0 mph 98% 0.00 in
05:10 58.8 °F 58.3 °F 29.95 in Calm     98% 0.00 in
05:15 58.8 °F 58.3 °F 29.95 in Calm     98% 0.00 in
05:20 58.8 °F 58.3 °F 29.95 in Calm     98% 0.00 in
05:25 58.8 °F 58.5 °F 29.94 in Calm     99% 0.00 in
05:30 58.6 °F 58.3 °F 29.94 in Calm   2.0 mph 99% 0.00 in
05:31 58.6 °F 58.3 °F 29.94 in Calm   2.0 mph 99% 0.00 in
05:36 58.6 °F 58.1 °F 29.94 in Calm     98% 0.00 in
05:41 58.6 °F 58.3 °F 29.95 in Calm     99% 0.00 in
05:46 58.5 °F 57.9 °F 29.94 in Calm   1.0 mph 98% 0.00 in
05:51 58.5 °F 58.1 °F 29.94 in Calm     99% 0.00 in
05:56 58.5 °F 58.1 °F 29.95 in Calm     99% 0.00 in
06:01 58.3 °F 57.7 °F 29.94 in Calm     98% 0.00 in
06:11 58.3 °F 57.7 °F 29.95 in Calm   2.0 mph 98% 0.00 in
06:16 58.1 °F 57.6 °F 29.95 in Calm     98% 0.00 in
06:21 57.9 °F 57.4 °F 29.95 in Calm   1.0 mph 98% 0.00 in
06:26 57.9 °F 57.4 °F 29.95 in Calm   1.0 mph 98% 0.00 in
06:31 57.7 °F 57.2 °F 29.96 in Calm   2.0 mph 98% 0.00 in
06:33 57.7 °F 57.2 °F 29.96 in Calm     98% 0.00 in
06:38 57.9 °F 57.6 °F 29.96 in Calm     99% 0.00 in
06:43 57.7 °F 57.4 °F 29.96 in Calm     99% 0.00 in
06:48 57.7 °F 57.4 °F 29.96 in Calm     99% 0.00 in
06:53 57.7 °F 57.4 °F 29.96 in Calm     99% 0.00 in
06:58 57.7 °F 57.4 °F 29.96 in Calm     99% 0.00 in
07:03 57.7 °F 57.4 °F 29.97 in Calm     99% 0.00 in
07:08 57.7 °F 57.4 °F 29.97 in Calm     99% 0.00 in
07:13 57.7 °F 57.4 °F 29.97 in Calm     99% 0.00 in
07:18 57.6 °F 57.2 °F 29.97 in Calm     99% 0.00 in
07:21 57.6 °F 57.2 °F 29.97 in Calm     99% 0.00 in
07:26 57.6 °F 57.2 °F 29.97 in SE 1.0 mph 1.0 mph 99% 0.00 in
07:31 57.6 °F 57.2 °F 29.97 in Calm     99% 0.00 in
07:36 57.7 °F 57.4 °F 29.97 in Calm     99% 0.00 in
07:41 57.7 °F 57.4 °F 29.97 in Calm     99% 0.00 in
07:46 57.9 °F 57.6 °F 29.97 in Calm     99% 0.00 in
07:52 57.9 °F 57.6 °F 29.98 in Calm     99% 0.00 in
07:57 58.3 °F 57.9 °F 29.98 in Calm     99% 0.00 in
08:02 58.3 °F 57.9 °F 29.98 in Calm   1.0 mph 99% 0.00 in
08:07 57.9 °F 57.6 °F 29.98 in Calm   1.0 mph 99% 0.00 in
08:12 57.9 °F 57.6 °F 29.98 in Calm     99% 0.00 in
08:17 57.7 °F 57.2 °F 29.99 in Calm     98% 0.00 in
08:22 57.6 °F 57.0 °F 29.99 in Calm     98% 0.00 in
08:27 57.7 °F 57.2 °F 29.98 in East 0.9 mph 2.0 mph 98% 0.00 in
08:32 57.7 °F 57.2 °F 29.98 in Calm   1.0 mph 98% 0.00 in
08:37 57.7 °F 57.2 °F 29.98 in Calm   1.0 mph 98% 0.00 in
08:42 57.7 °F 57.2 °F 29.98 in Calm   1.0 mph 98% 0.00 in
08:47 57.7 °F 57.2 °F 29.98 in Calm   1.0 mph 98% 0.00 in
08:52 57.9 °F 57.4 °F 29.98 in Calm     98% 0.00 in
08:57 58.3 °F 57.9 °F 29.98 in Calm   1.0 mph 99% 0.00 in
09:02 59.0 °F 58.6 °F 29.98 in Calm   1.0 mph 99% 0.00 in
09:07 59.2 °F 58.8 °F 29.98 in Calm     99% 0.00 in
09:12 59.2 °F 58.6 °F 29.98 in Calm   1.0 mph 98% 0.00 in
09:17 59.7 °F 59.2 °F 29.98 in Calm   2.0 mph 98% 0.00 in
09:22 60.8 °F 60.3 °F 29.98 in Calm   2.0 mph 98% 0.00 in
09:27 62.4 °F 61.9 °F 29.98 in East 0.9 mph 2.0 mph 98% 0.00 in
09:32 62.6 °F 61.2 °F 29.98 in Calm   2.0 mph 95% 0.00 in
09:37 62.6 °F 60.8 °F 29.98 in Calm   2.0 mph 94% 0.00 in
09:42 62.8 °F 60.8 °F 29.98 in ENE 2.0 mph 2.0 mph 93% 0.00 in
09:47 62.6 °F 60.6 °F 29.98 in Calm   1.0 mph 93% 0.00 in
09:48 62.6 °F 60.8 °F 29.98 in Calm   1.0 mph 94% 0.00 in
09:53 62.8 °F 60.8 °F 29.98 in Calm   1.0 mph 93% 0.00 in
09:58 62.8 °F 61.0 °F 29.98 in East 0.9 mph 2.0 mph 94% 0.00 in
10:03 62.8 °F 60.8 °F 29.98 in Calm     93% 0.00 in
10:08 63.1 °F 61.3 °F 29.98 in Calm   2.0 mph 94% 0.00 in
10:13 63.3 °F 61.5 °F 29.98 in Calm   1.0 mph 94% 0.00 in
10:18 63.7 °F 61.7 °F 29.99 in Calm   1.0 mph 93% 0.00 in
10:23 63.9 °F 62.1 °F 29.99 in Calm     94% 0.00 in
10:28 63.9 °F 62.1 °F 29.99 in Calm   1.0 mph 94% 0.00 in
10:33 63.7 °F 61.3 °F 29.99 in ENE 0.9 mph 2.0 mph 92% 0.00 in
10:38 63.9 °F 62.1 °F 29.99 in Calm   1.0 mph 94% 0.00 in
10:43 64.0 °F 62.2 °F 29.99 in Calm     94% 0.00 in
10:48 64.0 °F 61.7 °F 29.99 in Calm   1.0 mph 92% 0.00 in
10:53 64.2 °F 61.9 °F 29.99 in Calm   5.0 mph 92% 0.00 in
10:59 65.3 °F 63.5 °F 29.99 in ENE 0.9 mph 2.0 mph 94% 0.00 in
11:04 65.8 °F 62.2 °F 29.99 in East 0.9 mph 2.0 mph 88% 0.00 in
11:09 66.4 °F 62.4 °F 29.99 in Calm   1.0 mph 87% 0.00 in
11:14 67.6 °F 64.0 °F 29.99 in North 0.9 mph 1.0 mph 88% 0.00 in
11:19 69.3 °F 63.1 °F 29.99 in NNW 0.9 mph 1.0 mph 81% 0.00 in
11:24 71.2 °F 64.0 °F 29.99 in Calm   1.0 mph 78% 0.00 in
11:29 72.0 °F 63.1 °F 29.99 in Calm   1.0 mph 74% 0.00 in
11:40 71.2 °F 62.6 °F 29.99 in Calm   2.0 mph 74% 0.00 in
11:45 70.7 °F 63.1 °F 29.99 in East 0.9 mph 2.0 mph 77% 0.00 in
11:50 70.9 °F 61.9 °F 29.99 in Calm   1.0 mph 73% 0.00 in
11:55 71.4 °F 62.8 °F 29.99 in Calm   1.0 mph 74% 0.00 in
11:56 71.8 °F 60.6 °F 29.99 in NNW 0.9 mph 1.0 mph 68% 0.00 in
12:01 72.9 °F 60.8 °F 29.98 in North 0.9 mph 2.0 mph 66% 0.00 in
12:06 73.9 °F 61.3 °F 29.98 in NW 0.9 mph 2.0 mph 65% 0.00 in
12:11 74.1 °F 60.8 °F 29.98 in SSE 0.9 mph 2.0 mph 63% 0.00 in
12:16 73.9 °F 61.3 °F 29.98 in WNW 4.0 mph 8.0 mph 65% 0.00 in
12:21 73.8 °F 59.0 °F 29.98 in NNE 0.9 mph 2.0 mph 60% 0.00 in
12:26 73.0 °F 57.9 °F 29.98 in SW 2.0 mph 3.0 mph 59% 0.00 in
12:31 72.7 °F 57.9 °F 29.98 in West 0.9 mph 2.0 mph 60% 0.00 in
12:36 72.3 °F 57.7 °F 29.99 in Calm   1.0 mph 60% 0.00 in
12:42 72.7 °F 57.6 °F 29.99 in ENE 0.9 mph 1.0 mph 59% 0.00 in
12:43 72.7 °F 56.1 °F 29.98 in NE 2.0 mph 3.0 mph 56% 0.00 in
12:48 72.3 °F 54.1 °F 29.98 in Calm   1.0 mph 53% 0.00 in
12:53 72.7 °F 52.9 °F 29.98 in WNW 0.9 mph 2.0 mph 50% 0.00 in
12:58 72.5 °F 54.3 °F 29.99 in Calm   1.0 mph 53% 0.00 in
13:03 72.0 °F 54.3 °F 29.98 in Calm   2.0 mph 54% 0.00 in
13:08 71.8 °F 57.6 °F 29.98 in NE 0.9 mph 2.0 mph 61% 0.00 in
13:13 72.1 °F 59.7 °F 29.98 in NE 2.0 mph 2.0 mph 65% 0.00 in
13:18 72.7 °F 59.4 °F 29.98 in Calm   2.0 mph 63% 0.00 in
13:23 72.7 °F 57.9 °F 29.97 in ESE 2.0 mph 3.0 mph 60% 0.00 in
13:28 72.5 °F 57.4 °F 29.97 in Calm     59% 0.00 in
13:33 72.3 °F 59.5 °F 29.96 in Calm   1.0 mph 64% 0.00 in
13:38 71.8 °F 58.1 °F 29.96 in East 0.9 mph 1.0 mph 62% 0.00 in
13:43 71.1 °F 56.8 °F 29.96 in Calm   2.0 mph 61% 0.00 in
13:48 70.5 °F 59.4 °F 29.96 in Calm   1.0 mph 68% 0.00 in
13:53 71.1 °F 58.6 °F 29.96 in ENE 0.9 mph 2.0 mph 65% 0.00 in
13:58 72.5 °F 61.0 °F 29.96 in Calm   2.0 mph 67% 0.00 in
14:03 73.6 °F 57.4 °F 29.96 in Calm   1.0 mph 57% 0.00 in
14:08 73.9 °F 56.8 °F 29.95 in Calm   2.0 mph 55% 0.00 in
14:13 74.5 °F 57.7 °F 29.95 in NE 2.0 mph 2.0 mph 56% 0.00 in
14:18 75.2 °F 57.4 °F 29.94 in ENE 0.9 mph 2.0 mph 54% 0.00 in
14:23 75.6 °F 57.7 °F 29.95 in Calm   14.0 mph 54% 0.00 in
14:28 75.0 °F 58.3 °F 29.95 in NE 0.9 mph 2.0 mph 56% 0.00 in
14:33 74.7 °F 56.8 °F 29.95 in NNW 0.9 mph 2.0 mph 54% 0.00 in
14:38 74.1 °F 58.5 °F 29.95 in NNE 0.9 mph 2.0 mph 58% 0.00 in
14:43 73.4 °F 57.7 °F 29.95 in NNE 0.9 mph 2.0 mph 58% 0.00 in
14:48 72.7 °F 55.6 °F 29.95 in ESE 5.0 mph 5.0 mph 55% 0.00 in
14:53 72.3 °F 55.2 °F 29.95 in Calm   1.0 mph 55% 0.00 in
15:04 73.0 °F 54.3 °F 29.94 in Calm   1.0 mph 52% 0.00 in
15:09 73.8 °F 58.5 °F 29.93 in Calm   1.0 mph 59% 0.00 in
15:14 74.5 °F 56.7 °F 29.93 in SE 0.9 mph 1.0 mph 54% 0.00 in
15:19 74.8 °F 57.0 °F 29.93 in Calm   2.0 mph 54% 0.00 in
15:24 75.4 °F 56.5 °F 29.93 in Calm   1.0 mph 52% 0.00 in
15:29 75.4 °F 55.4 °F 29.92 in Calm   1.0 mph 50% 0.00 in
15:34 74.8 °F 56.1 °F 29.92 in Calm     52% 0.00 in
15:39 74.8 °F 56.1 °F 29.92 in Calm     52% 0.00 in
15:44 75.4 °F 56.5 °F 29.92 in Calm   1.0 mph 52% 0.00 in
15:49 75.4 °F 55.4 °F 29.91 in Calm   2.0 mph 50% 0.00 in
15:54 75.2 °F 55.8 °F 29.91 in Calm     51% 0.00 in
15:59 75.2 °F 58.5 °F 29.91 in SE 0.9 mph 1.0 mph 56% 0.00 in
16:04 74.8 °F 55.6 °F 29.90 in East 2.0 mph 3.0 mph 51% 0.00 in
16:09 74.7 °F 57.4 °F 29.90 in Calm   1.0 mph 55% 0.00 in
16:14 74.3 °F 56.1 °F 29.89 in Calm     53% 0.00 in
16:19 74.5 °F 55.2 °F 29.88 in Calm     51% 0.00 in
16:24 74.5 °F 56.7 °F 29.88 in Calm     54% 0.00 in
16:29 74.5 °F 55.8 °F 29.88 in Calm   1.0 mph 52% 0.00 in
16:39 74.5 °F 57.2 °F 29.88 in Calm     55% 0.00 in
16:44 74.3 °F 56.7 °F 29.88 in Calm   1.0 mph 54% 0.00 in
16:49 73.9 °F 55.8 °F 29.87 in Calm   1.0 mph 53% 0.00 in
16:54 73.9 °F 55.8 °F 29.87 in Calm     53% 0.00 in
17:00 74.1 °F 54.9 °F 29.87 in Calm   1.0 mph 51% 0.00 in
17:05 74.1 °F 56.5 °F 29.87 in Calm     54% 0.00 in
17:10 74.1 °F 55.4 °F 29.87 in Calm     52% 0.00 in
17:15 74.1 °F 56.8 °F 29.87 in Calm   1.0 mph 55% 0.00 in
17:20 73.9 °F 57.7 °F 29.87 in Calm     57% 0.00 in
17:25 73.8 °F 58.1 °F 29.87 in Calm     58% 0.00 in
17:30 73.2 °F 55.6 °F 29.87 in Calm     54% 0.00 in
17:35 73.0 °F 54.9 °F 29.87 in Calm     53% 0.00 in
17:40 72.7 °F 55.0 °F 29.87 in Calm   1.0 mph 54% 0.00 in
17:45 72.7 °F 55.6 °F 29.87 in Calm     55% 0.00 in
17:50 72.7 °F 56.5 °F 29.87 in Calm     57% 0.00 in
17:55 72.7 °F 55.6 °F 29.87 in Calm     55% 0.00 in
18:00 72.9 °F 56.7 °F 29.87 in Calm     57% 0.00 in
18:05 72.7 °F 55.0 °F 29.87 in Calm     54% 0.00 in
18:10 72.7 °F 55.6 °F 29.87 in Calm     55% 0.00 in
18:15 72.7 °F 55.6 °F 29.87 in Calm     55% 0.00 in
18:20 72.9 °F 55.2 °F 29.87 in Calm     54% 0.00 in
18:25 73.0 °F 55.9 °F 29.87 in Calm     55% 0.00 in
18:30 72.9 °F 55.8 °F 29.87 in Calm     55% 0.00 in
18:35 72.7 °F 55.0 °F 29.87 in Calm     54% 0.00 in
18:40 72.7 °F 55.0 °F 29.88 in Calm   1.0 mph 54% 0.00 in
18:45 72.5 °F 55.9 °F 29.87 in Calm     56% 0.00 in
18:50 72.1 °F 55.6 °F 29.87 in Calm     56% 0.00 in
18:55 71.8 °F 55.2 °F 29.87 in Calm   1.0 mph 56% 0.00 in
19:00 71.6 °F 54.5 °F 29.87 in Calm   1.0 mph 55% 0.00 in
19:05 71.4 °F 54.0 °F 29.87 in West 0.9 mph 1.0 mph 54% 0.00 in
19:10 71.2 °F 53.2 °F 29.86 in Calm   1.0 mph 53% 0.00 in
19:16 71.1 °F 53.6 °F 29.87 in Calm     54% 0.00 in
19:21 71.1 °F 53.6 °F 29.87 in Calm     54% 0.00 in
19:26 70.9 °F 52.9 °F 29.86 in Calm     53% 0.00 in
19:31 71.1 °F 53.1 °F 29.86 in Calm   1.0 mph 53% 0.00 in
19:36 71.1 °F 53.6 °F 29.86 in Calm     54% 0.00 in
19:41 70.9 °F 52.9 °F 29.86 in WNW 0.9 mph 2.0 mph 53% 0.00 in
19:46 71.1 °F 53.1 °F 29.87 in Calm   2.0 mph 53% 0.00 in
19:51 71.1 °F 54.1 °F 29.86 in Calm   1.0 mph 55% 0.00 in
19:56 70.9 °F 54.0 °F 29.86 in WSW 0.9 mph 1.0 mph 55% 0.00 in
20:01 70.5 °F 53.6 °F 29.87 in West 0.9 mph 1.0 mph 55% 0.00 in
20:06 70.3 °F 54.0 °F 29.87 in SW 0.9 mph 1.0 mph 56% 0.00 in
20:11 70.3 °F 54.0 °F 29.88 in Calm     56% 0.00 in
20:16 70.2 °F 53.2 °F 29.88 in Calm   2.0 mph 55% 0.00 in
20:21 70.0 °F 53.6 °F 29.89 in NW 0.9 mph 2.0 mph 56% 0.00 in
20:26 69.4 °F 55.4 °F 29.89 in Calm   1.0 mph 61% 0.00 in
20:31 68.5 °F 55.4 °F 29.90 in Calm   1.0 mph 63% 0.00 in
20:36 67.5 °F 55.8 °F 29.91 in Calm   2.0 mph 66% 0.00 in
20:41 66.2 °F 55.8 °F 29.92 in Calm   2.0 mph 69% 0.00 in
20:46 64.9 °F 56.8 °F 29.94 in East 2.0 mph 2.0 mph 75% 0.00 in
20:52 62.6 °F 56.3 °F 29.96 in NW 0.9 mph 3.0 mph 80% 0.03 in
20:57 60.8 °F 55.9 °F 29.97 in Calm   1.0 mph 84% 0.08 in
21:02 59.5 °F 55.6 °F 29.98 in Calm   1.0 mph 87% 0.17 in
21:07 58.5 °F 55.2 °F 29.99 in NNW 0.9 mph 1.0 mph 89% 0.19 in
21:12 57.9 °F 55.2 °F 29.99 in Calm     91% 0.22 in
21:17 57.4 °F 55.0 °F 30.00 in Calm   1.0 mph 92% 0.24 in
21:22 57.0 °F 54.7 °F 30.01 in Calm     92% 0.27 in
21:27 56.8 °F 54.9 °F 30.01 in Calm     93% 0.29 in
21:32 56.7 °F 54.7 °F 30.01 in Calm     93% 0.32 in
21:37 56.5 °F 54.9 °F 30.02 in Calm     94% 0.35 in
21:42 56.5 °F 54.9 °F 30.02 in Calm     94% 0.37 in
21:47 56.1 °F 54.5 °F 30.03 in Calm     94% 0.39 in
21:52 56.1 °F 54.7 °F 30.03 in Calm     95% 0.38 in
21:57 55.9 °F 54.5 °F 30.03 in Calm     95% 0.35 in
22:02 55.9 °F 54.5 °F 30.03 in Calm     95% 0.28 in
22:07 55.9 °F 54.5 °F 30.03 in Calm     95% 0.28 in
22:12 55.8 °F 54.3 °F 30.03 in Calm     95% 0.28 in
22:17 55.8 °F 54.3 °F 30.03 in Calm     95% 0.28 in
22:22 55.8 °F 54.3 °F 30.03 in Calm     95% 0.27 in
22:27 55.6 °F 54.5 °F 30.03 in Calm     96% 0.27 in
22:32 55.6 °F 54.5 °F 30.03 in Calm     96% 0.26 in
22:37 55.6 °F 54.5 °F 30.03 in Calm     96% 0.26 in
22:38 55.6 °F 54.5 °F 30.03 in Calm     96% 0.26 in
22:43 55.4 °F 54.3 °F 30.03 in Calm     96% 0.26 in
22:48 55.4 °F 54.3 °F 30.04 in Calm     96% 0.25 in
22:54 55.2 °F 54.1 °F 30.04 in Calm     96% 0.25 in
22:59 55.4 °F 54.3 °F 30.04 in Calm     96% 0.25 in
23:04 55.6 °F 54.7 °F 30.03 in Calm     97% 0.23 in
23:09 55.6 °F 54.7 °F 30.03 in Calm     97% 0.22 in
23:14 55.4 °F 54.5 °F 30.03 in Calm     97% 0.21 in
23:19 55.4 °F 54.5 °F 30.02 in Calm     97% 0.20 in
23:24 55.2 °F 54.3 °F 30.01 in Calm   1.0 mph 97% 0.18 in
23:29 55.2 °F 54.3 °F 30.00 in Calm   1.0 mph 97% 0.16 in
23:34 55.2 °F 54.3 °F 29.99 in Calm   1.0 mph 97% 0.15 in
23:39 55.2 °F 54.3 °F 29.98 in Calm     97% 0.13 in
23:44 55.2 °F 54.3 °F 29.98 in NNW 0.9 mph 1.0 mph 97% 0.12 in
23:49 55.2 °F 54.3 °F 29.98 in Calm   2.0 mph 97% 0.11 in
23:54 55.0 °F 54.1 °F 29.98 in Calm   1.0 mph 97% 0.09 in
23:59 55.0 °F 54.1 °F 29.98 in Calm     97% 0.07 in
WheeWeather.com
Compliments of Weather Underground - 2.5 mb